Time;durP1;ratioP1;P1;durP2;ratioP2;P2;SDS_P1;SDS_P2;PMS_P1;PMS_P2;Temp;Humidity;BMP_temperature;BMP_pressure;BME280_temperature;BME280_humidity;BME280_pressure;Samples;Min_cycle;Max_cycle;Signal;HPM_P1;HPM_P2
2023/08/21 00:01:28;;;;;;;3.30;1.80;;;;;;;21.23;100.00;101679.63;5113915;28;20464;-69
2023/08/21 00:03:54;;;;;;;3.40;1.80;;;;;;;21.25;100.00;101677.34;5114138;28;20525;-69
2023/08/21 00:06:21;;;;;;;3.23;1.87;;;;;;;21.25;100.00;101671.84;5114295;28;20476;-69
2023/08/21 00:08:48;;;;;;;5.70;2.47;;;;;;;21.27;100.00;101680.56;5114233;28;20444;-69
2023/08/21 00:11:14;;;;;;;5.00;2.10;;;;;;;21.29;100.00;101667.22;5114074;28;20529;-69
2023/08/21 00:13:44;;;;;;;5.73;2.33;;;;;;;;;;5114000;28;20518;-69
2023/08/21 00:16:11;;;;;;;3.73;2.37;;;;;;;21.31;100.00;101667.72;5113974;28;20540;-69
2023/08/21 00:18:37;;;;;;;3.20;1.60;;;;;;;21.31;100.00;101675.97;5114189;28;20933;-69
2023/08/21 00:21:04;;;;;;;4.37;2.50;;;;;;;21.33;100.00;101681.94;5114304;28;20523;-69
2023/08/21 00:23:31;;;;;;;3.97;2.00;;;;;;;21.35;100.00;101676.09;5113925;28;20443;-69
2023/08/21 00:25:57;;;;;;;4.27;2.03;;;;;;;21.36;100.00;101672.97;5113791;28;20483;-69
2023/08/21 00:28:24;;;;;;;4.17;1.80;;;;;;;21.36;100.00;101680.44;5113595;28;20431;-69
2023/08/21 00:30:52;;;;;;;4.77;2.80;;;;;;;21.36;100.00;101672.19;5113840;28;20435;-69
2023/08/21 00:33:18;;;;;;;3.47;1.93;;;;;;;21.34;100.00;101672.53;5113801;28;20442;-69
2023/08/21 00:35:45;;;;;;;4.57;2.30;;;;;;;21.30;100.00;101679.88;5113865;28;20462;-69
2023/08/21 00:38:12;;;;;;;5.57;2.03;;;;;;;21.31;100.00;101684.25;5113761;28;20439;-69
2023/08/21 00:40:38;;;;;;;4.50;2.27;;;;;;;;;;5113714;28;20443;-69
2023/08/21 00:43:05;;;;;;;3.33;1.60;;;;;;;21.27;100.00;101677.00;5113996;28;20440;-68
2023/08/21 00:45:31;;;;;;;3.93;1.70;;;;;;;21.24;100.00;101672.97;5113595;28;20479;-68
2023/08/21 00:48:00;;;;;;;4.47;2.30;;;;;;;21.22;100.00;101680.78;5113501;28;20935;-67
2023/08/21 00:50:26;;;;;;;4.30;2.33;;;;;;;21.21;100.00;101676.44;5113331;28;20427;-68
2023/08/21 00:52:53;;;;;;;4.47;2.07;;;;;;;21.20;100.00;101679.53;5114001;28;20435;-68
2023/08/21 00:55:19;;;;;;;5.63;2.20;;;;;;;21.18;100.00;101679.88;5113924;28;20456;-69
2023/08/21 00:57:46;;;;;;;4.57;1.90;;;;;;;21.20;100.00;101677.56;5113676;28;20559;-69
2023/08/21 01:00:14;;;;;;;4.40;2.30;;;;;;;21.20;100.00;101662.97;5113676;28;20846;-69
2023/08/21 01:02:41;;;;;;;3.37;1.47;;;;;;;21.21;100.00;101681.16;5113682;28;20438;-69
2023/08/21 01:05:09;;;;;;;5.50;2.60;;;;;;;21.20;100.00;101680.31;5113725;28;20490;-69
2023/08/21 01:07:48;;;;;;;4.30;1.80;;;;;;;21.20;100.00;101677.56;5113480;28;20526;-68
2023/08/21 01:10:21;;;;;;;4.20;2.67;;;;;;;21.21;100.00;101681.94;5113229;28;20817;-68
2023/08/21 01:12:55;;;;;;;3.87;1.83;;;;;;;21.22;100.00;101672.53;5113717;28;20863;-69
2023/08/21 01:15:22;;;;;;;4.00;1.70;;;;;;;21.25;100.00;101677.34;5112636;28;20551;-68
2023/08/21 01:17:50;;;;;;;3.97;2.23;;;;;;;21.25;100.00;101668.25;5113469;28;20441;-68
2023/08/21 01:20:18;;;;;;;4.10;1.97;;;;;;;21.26;100.00;101670.69;5115879;28;20431;-69
2023/08/21 01:22:46;;;;;;;6.60;1.80;;;;;;;21.29;100.00;101671.94;5116970;28;20442;-69
2023/08/21 01:25:15;;;;;;;3.80;2.10;;;;;;;21.29;100.00;101666.41;5117064;28;20829;-68
2023/08/21 01:27:44;;;;;;;3.60;1.87;;;;;;;21.32;100.00;101668.50;5116993;28;20447;-68
2023/08/21 01:30:11;;;;;;;3.50;2.03;;;;;;;21.29;100.00;101669.16;5116682;28;21018;-69
2023/08/21 01:32:43;;;;;;;4.70;1.93;;;;;;;21.30;100.00;101668.84;5116687;28;20435;-68
2023/08/21 01:35:12;;;;;;;3.57;1.70;;;;;;;21.30;100.00;101663.31;5116657;28;20459;-68
2023/08/21 01:37:39;;;;;;;3.40;1.83;;;;;;;21.30;100.00;101657.00;5117147;28;20865;-69
2023/08/21 01:40:07;;;;;;;3.23;1.93;;;;;;;21.31;100.00;101645.66;5116441;28;20443;-69
2023/08/21 01:42:34;;;;;;;3.87;1.97;;;;;;;21.33;100.00;101640.59;5116792;28;20527;-69
2023/08/21 01:45:01;;;;;;;4.20;2.20;;;;;;;21.40;100.00;101645.53;5116713;28;20461;-69
2023/08/21 01:47:28;;;;;;;4.73;2.23;;;;;;;21.47;100.00;101661.47;5116570;28;20435;-68
2023/08/21 01:49:54;;;;;;;3.70;2.00;;;;;;;21.52;100.00;101664.00;5117276;28;20454;-69
2023/08/21 01:52:21;;;;;;;5.60;2.30;;;;;;;21.56;100.00;101660.19;5116566;28;20468;-68
2023/08/21 01:54:50;;;;;;;3.43;1.77;;;;;;;21.61;100.00;101656.38;5116438;28;20441;-68
2023/08/21 01:57:16;;;;;;;4.20;2.00;;;;;;;21.63;100.00;101648.56;5116492;28;20458;-68
2023/08/21 01:59:44;;;;;;;3.77;1.93;;;;;;;21.67;100.00;101644.75;5116414;28;20442;-68
2023/08/21 02:02:11;;;;;;;3.53;2.13;;;;;;;21.67;100.00;101650.25;5116569;28;20523;-68
2023/08/21 02:04:38;;;;;;;3.60;1.77;;;;;;;21.66;100.00;101656.94;5116347;28;20446;-68
2023/08/21 02:07:04;;;;;;;2.90;1.43;;;;;;;21.67;100.00;101654.97;5116186;28;20573;-69
2023/08/21 02:09:31;;;;;;;4.40;2.27;;;;;;;21.70;100.00;101665.31;5116274;28;20439;-68
2023/08/21 02:11:57;;;;;;;5.17;1.90;;;;;;;21.70;100.00;101656.25;5115853;28;20435;-69
2023/08/21 02:14:24;;;;;;;3.40;1.77;;;;;;;21.69;100.00;101651.84;5116086;28;20465;-68
2023/08/21 02:16:52;;;;;;;4.80;2.27;;;;;;;21.72;100.00;101648.41;5116404;28;20473;-69
2023/08/21 02:19:18;;;;;;;4.40;2.00;;;;;;;21.70;100.00;101642.44;5116054;28;20440;-68
2023/08/21 02:21:45;;;;;;;4.27;1.90;;;;;;;21.69;100.00;101643.59;5116420;28;20467;-68
2023/08/21 02:24:11;;;;;;;4.30;2.40;;;;;;;21.69;100.00;101636.09;5115933;28;20436;-68
2023/08/21 02:26:38;;;;;;;3.70;2.00;;;;;;;21.71;100.00;101647.59;5115635;28;20497;-68
2023/08/21 02:29:05;;;;;;;5.20;2.40;;;;;;;21.74;100.00;101649.69;5115836;28;20531;-68
2023/08/21 02:31:31;;;;;;;3.93;1.93;;;;;;;21.81;100.00;101654.56;5116506;28;20522;-68
2023/08/21 02:33:59;;;;;;;4.47;2.30;;;;;;;21.86;100.00;101652.34;5115778;28;20435;-68
2023/08/21 02:36:25;;;;;;;4.63;1.93;;;;;;;21.88;100.00;101666.63;5115580;28;20448;-68
2023/08/21 02:38:52;;;;;;;3.47;2.10;;;;;;;21.92;100.00;101664.75;5115765;28;20961;-68
2023/08/21 02:41:19;;;;;;;4.77;2.40;;;;;;;21.96;100.00;101661.28;5115619;28;20442;-68
2023/08/21 02:43:45;;;;;;;4.70;2.23;;;;;;;21.98;100.00;101664.50;5115382;28;20915;-68
2023/08/21 02:46:12;;;;;;;3.90;1.77;;;;;;;22.01;100.00;101658.28;5115694;28;20877;-68
2023/08/21 02:48:38;;;;;;;4.27;2.20;;;;;;;22.05;100.00;101659.19;5115544;28;20492;-68
2023/08/21 02:51:06;;;;;;;3.83;1.83;;;;;;;22.07;100.00;101659.63;5115766;28;20520;-68
2023/08/21 02:53:33;;;;;;;4.00;2.33;;;;;;;22.11;100.00;101660.53;5115344;28;20446;-68
2023/08/21 02:55:59;;;;;;;3.83;2.20;;;;;;;22.11;100.00;101664.09;5115387;28;20534;-68
2023/08/21 02:58:26;;;;;;;4.50;2.60;;;;;;;22.13;100.00;101656.31;5115289;28;20864;-68
2023/08/21 03:00:52;;;;;;;4.13;2.10;;;;;;;22.14;100.00;101665.38;5115186;28;20994;-68
2023/08/21 03:03:19;;;;;;;3.93;2.30;;;;;;;22.17;100.00;101659.94;5115203;28;20926;-68
2023/08/21 03:05:45;;;;;;;3.33;1.77;;;;;;;22.16;100.00;101661.09;5114886;28;20487;-68
2023/08/21 03:08:13;;;;;;;3.67;1.80;;;;;;;22.14;100.00;101659.88;5115064;28;20436;-68
2023/08/21 03:10:40;;;;;;;4.40;2.33;;;;;;;22.07;100.00;101662.38;5115047;28;20467;-68
2023/08/21 03:13:06;;;;;;;3.67;1.80;;;;;;;22.02;100.00;101666.22;5114754;28;20980;-68
2023/08/21 03:15:33;;;;;;;3.77;1.60;;;;;;;22.04;100.00;101657.56;5114497;28;20570;-68
2023/08/21 03:18:00;;;;;;;3.23;1.80;;;;;;;21.99;100.00;101652.31;5115215;28;20446;-69
2023/08/21 03:20:26;;;;;;;4.53;1.90;;;;;;;21.97;100.00;101649.91;5114766;28;20446;-69
2023/08/21 03:22:53;;;;;;;3.17;1.70;;;;;;;21.92;100.00;101650.16;5114452;28;20435;-69
2023/08/21 03:25:21;;;;;;;5.30;2.20;;;;;;;21.84;100.00;101654.69;5114227;28;20466;-68
2023/08/21 03:27:49;;;;;;;3.70;1.93;;;;;;;21.79;100.00;101654.13;5115090;28;20435;-68
2023/08/21 03:30:16;;;;;;;4.37;2.40;;;;;;;21.78;100.00;101653.34;5114295;28;20451;-68
2023/08/21 03:32:42;;;;;;;4.47;2.20;;;;;;;21.77;100.00;101650.91;5114733;28;20440;-68
2023/08/21 03:35:09;;;;;;;3.83;1.93;;;;;;;21.75;100.00;101650.47;5114474;28;20542;-68
2023/08/21 03:37:36;;;;;;;5.83;2.20;;;;;;;21.71;100.00;101649.56;5114463;28;20431;-68
2023/08/21 03:40:03;;;;;;;4.40;2.10;;;;;;;21.69;100.00;101649.91;5114552;28;20526;-68
2023/08/21 03:42:31;;;;;;;3.80;1.93;;;;;;;21.68;100.00;101653.81;5113740;28;20443;-68
2023/08/21 03:44:58;;;;;;;3.70;1.70;;;;;;;21.67;100.00;101657.72;5114325;28;20450;-68
2023/08/21 03:47:24;;;;;;;4.97;2.47;;;;;;;21.63;100.00;101649.34;5114317;28;20475;-68
2023/08/21 03:49:51;;;;;;;4.70;2.57;;;;;;;21.64;100.00;101656.47;5114322;28;20435;-68
2023/08/21 03:52:17;;;;;;;3.87;2.23;;;;;;;21.64;100.00;101666.69;5114025;28;21002;-68
2023/08/21 03:54:44;;;;;;;3.90;2.10;;;;;;;21.61;100.00;101675.69;5114155;28;20435;-69
2023/08/21 03:57:11;;;;;;;5.20;2.30;;;;;;;21.57;100.00;101672.81;5114300;28;21022;-68
2023/08/21 03:59:38;;;;;;;4.00;2.43;;;;;;;21.56;100.00;101681.44;5113962;28;21023;-68
2023/08/21 04:02:05;;;;;;;4.00;2.10;;;;;;;21.51;100.00;101673.41;5114573;28;20860;-68
2023/08/21 04:04:32;;;;;;;5.33;2.47;;;;;;;21.44;100.00;101689.75;5114097;28;20436;-68
2023/08/21 04:06:58;;;;;;;3.70;2.07;;;;;;;21.38;100.00;101701.03;5113626;28;21024;-68
2023/08/21 04:09:25;;;;;;;4.00;2.27;;;;;;;;;;5113674;28;20863;-68
2023/08/21 04:11:51;;;;;;;4.33;2.40;;;;;;;21.29;100.00;101694.78;5113712;28;20808;-68
2023/08/21 04:14:18;;;;;;;5.10;2.80;;;;;;;21.30;100.00;101690.88;5114191;28;20447;-67
2023/08/21 04:16:45;;;;;;;3.00;1.60;;;;;;;;;;5113942;28;20458;-67
2023/08/21 04:19:12;;;;;;;5.40;2.50;;;;;;;21.32;100.00;101696.06;5113671;28;20813;-67
2023/08/21 04:21:38;;;;;;;5.00;2.07;;;;;;;21.36;100.00;101697.00;5113823;28;20998;-67
2023/08/21 04:24:05;;;;;;;4.97;2.63;;;;;;;21.35;100.00;101698.94;5114232;28;20471;-67
2023/08/21 04:26:32;;;;;;;4.20;2.40;;;;;;;21.36;100.00;101692.28;5113848;28;20488;-67
2023/08/21 04:28:59;;;;;;;4.63;2.27;;;;;;;21.36;100.00;101702.50;5113862;28;20534;-67
2023/08/21 04:31:25;;;;;;;4.17;2.00;;;;;;;21.36;100.00;101703.31;5113796;28;20435;-67
2023/08/21 04:33:53;;;;;;;4.43;1.90;;;;;;;21.37;100.00;101701.34;5113876;28;20467;-68
2023/08/21 04:36:20;;;;;;;3.90;2.13;;;;;;;21.35;100.00;101700.91;5113791;28;21034;-68
2023/08/21 04:38:46;;;;;;;5.10;2.20;;;;;;;21.35;100.00;101698.94;5113765;28;20438;-68
2023/08/21 04:41:13;;;;;;;3.57;1.70;;;;;;;21.38;100.00;101694.69;5113793;28;20528;-68
2023/08/21 04:43:39;;;;;;;3.70;2.00;;;;;;;21.39;100.00;101699.06;5113737;28;20442;-68
2023/08/21 04:46:06;;;;;;;4.70;2.27;;;;;;;21.40;100.00;101706.19;5113636;28;20501;-68
2023/08/21 04:48:32;;;;;;;6.40;2.50;;;;;;;21.39;100.00;101705.38;5114125;28;20444;-68
2023/08/21 04:51:00;;;;;;;3.97;1.63;;;;;;;21.36;100.00;101700.53;5113748;28;20439;-68
2023/08/21 04:53:27;;;;;;;3.93;2.37;;;;;;;21.34;100.00;101705.63;5113458;28;20446;-68
2023/08/21 04:55:54;;;;;;;4.50;2.03;;;;;;;21.39;100.00;101704.56;5117408;28;20806;-70
2023/08/21 04:58:20;;;;;;;3.90;2.00;;;;;;;21.44;100.00;101698.81;5117568;28;20439;-67
2023/08/21 05:00:47;;;;;;;4.60;2.23;;;;;;;21.49;100.00;101703.28;5117333;28;20805;-67
2023/08/21 05:03:13;;;;;;;3.70;2.10;;;;;;;21.53;100.00;101698.69;5118165;28;20427;-67
2023/08/21 05:05:40;;;;;;;6.13;2.80;;;;;;;21.52;100.00;101697.88;5117454;28;20455;-68
2023/08/21 05:08:08;;;;;;;4.90;3.07;;;;;;;21.57;100.00;101694.09;5117353;28;20658;-68
2023/08/21 05:10:34;;;;;;;4.30;2.33;;;;;;;21.61;100.00;101689.47;5117177;28;20440;-68
2023/08/21 05:13:01;;;;;;;3.77;2.17;;;;;;;21.72;100.00;101690.56;5117574;28;20435;-68
2023/08/21 05:15:27;;;;;;;4.57;2.40;;;;;;;21.78;100.00;101696.66;5116881;28;20997;-68
2023/08/21 05:17:54;;;;;;;5.60;2.33;;;;;;;21.84;100.00;101687.78;5116958;28;20813;-68
2023/08/21 05:20:21;;;;;;;4.00;2.23;;;;;;;21.89;100.00;101690.28;5117167;28;20457;-68
2023/08/21 05:22:47;;;;;;;3.87;2.00;;;;;;;21.89;100.00;101690.28;5116839;28;20443;-68
2023/08/21 05:25:16;;;;;;;3.30;1.70;;;;;;;21.90;100.00;101697.41;5116997;28;20477;-68
2023/08/21 05:27:42;;;;;;;4.03;2.40;;;;;;;21.94;100.00;101686.47;5116993;28;20483;-68
2023/08/21 05:30:10;;;;;;;4.33;2.07;;;;;;;21.99;100.00;101694.50;5117646;28;20527;-68
2023/08/21 05:32:37;;;;;;;3.93;1.80;;;;;;;22.03;100.00;101695.41;5116635;28;20931;-68
2023/08/21 05:35:04;;;;;;;4.70;2.50;;;;;;;22.07;100.00;101695.50;5117157;28;20483;-68
2023/08/21 05:37:30;;;;;;;5.30;3.10;;;;;;;22.08;100.00;101697.91;5116868;28;20439;-68
2023/08/21 05:39:57;;;;;;;3.90;1.87;;;;;;;22.08;100.00;101703.41;5117145;28;20439;-68
2023/08/21 05:42:25;;;;;;;6.67;2.73;;;;;;;22.12;100.00;101703.56;5116676;28;20478;-68
2023/08/21 05:44:52;;;;;;;5.43;2.90;;;;;;;22.11;100.00;101711.00;5116684;28;20450;-68
2023/08/21 05:47:18;;;;;;;4.90;2.63;;;;;;;22.10;100.00;101711.38;5116574;28;20608;-68
2023/08/21 05:49:45;;;;;;;4.23;2.40;;;;;;;22.16;100.00;101721.81;5116809;28;20523;-68
2023/08/21 05:52:11;;;;;;;5.73;2.80;;;;;;;22.21;100.00;101717.19;5116848;28;20439;-68
2023/08/21 05:54:38;;;;;;;4.07;2.27;;;;;;;22.21;100.00;101726.28;5116569;28;20526;-68
2023/08/21 05:57:05;;;;;;;6.10;2.27;;;;;;;22.25;100.00;101735.47;5116834;28;20435;-68
2023/08/21 05:59:33;;;;;;;4.50;2.57;;;;;;;22.25;100.00;101731.91;5116339;28;20435;-68
2023/08/21 06:02:00;;;;;;;4.70;2.67;;;;;;;22.28;100.00;101737.53;5116497;28;20439;-68
2023/08/21 06:04:27;;;;;;;3.63;2.20;;;;;;;22.31;100.00;101736.84;5116008;28;20439;-67
2023/08/21 06:06:54;;;;;;;3.37;1.80;;;;;;;22.29;100.00;101730.03;5116001;28;20487;-67
2023/08/21 06:09:21;;;;;;;6.00;2.40;;;;;;;22.26;100.00;101739.81;5116173;28;20915;-67
2023/08/21 06:11:47;;;;;;;6.33;3.10;;;;;;;22.21;100.00;101737.31;5116144;28;20447;-68
2023/08/21 06:14:14;;;;;;;3.73;2.03;;;;;;;22.17;100.00;101733.66;5115908;28;20454;-67
2023/08/21 06:16:43;;;;;;;4.30;2.60;;;;;;;22.18;100.00;101746.31;5116083;28;20535;-67
2023/08/21 06:19:10;;;;;;;4.33;2.30;;;;;;;22.16;100.00;101738.38;5115962;28;20530;-68
2023/08/21 06:21:36;;;;;;;4.53;2.00;;;;;;;22.20;100.00;101745.97;5116221;28;20533;-67
2023/08/21 06:24:03;;;;;;;6.77;4.27;;;;;;;22.19;100.00;101745.16;5115980;28;20530;-67
2023/08/21 06:26:29;;;;;;;8.17;4.07;;;;;;;22.16;100.00;101751.38;5115633;28;20452;-67
2023/08/21 06:28:56;;;;;;;8.73;4.03;;;;;;;22.12;100.00;101754.03;5115839;28;20440;-66
2023/08/21 06:31:23;;;;;;;6.93;3.63;;;;;;;22.08;100.00;101753.09;5115877;28;20938;-67
2023/08/21 06:33:51;;;;;;;6.87;3.80;;;;;;;22.10;100.00;101752.75;5115488;28;20920;-67
2023/08/21 06:36:17;;;;;;;7.70;4.20;;;;;;;22.16;100.00;101751.38;5115945;28;20520;-67
2023/08/21 06:38:44;;;;;;;8.87;3.80;;;;;;;22.22;100.00;101755.47;5115574;28;20436;-71
2023/08/21 06:41:11;;;;;;;9.40;3.53;;;;;;;22.32;100.00;101759.72;5115590;28;20436;-68
2023/08/21 06:43:37;;;;;;;6.60;3.90;;;;;;;22.43;100.00;101758.03;5115868;28;20467;-68
2023/08/21 06:46:04;;;;;;;6.03;3.63;;;;;;;22.60;100.00;101757.72;5115573;28;20468;-67
2023/08/21 06:48:31;;;;;;;11.07;4.20;;;;;;;22.79;100.00;101753.44;5115921;28;20494;-67
2023/08/21 06:50:59;;;;;;;8.70;4.00;;;;;;;22.90;100.00;101754.56;5115299;28;20444;-67
2023/08/21 06:53:25;;;;;;;7.07;3.97;;;;;;;23.05;100.00;101755.72;5115287;28;20613;-67
2023/08/21 06:55:52;;;;;;;6.30;3.50;;;;;;;23.14;100.00;101756.31;5115223;28;21034;-67
2023/08/21 06:58:18;;;;;;;9.60;4.50;;;;;;;23.17;99.63;101748.13;5114916;28;20994;-68
2023/08/21 07:00:45;;;;;;;8.10;4.43;;;;;;;23.18;98.49;101743.38;5115584;28;20432;-67
2023/08/21 07:03:12;;;;;;;6.80;3.73;;;;;;;23.17;97.64;101744.56;5114886;28;20875;-67
2023/08/21 07:05:38;;;;;;;6.30;3.60;;;;;;;23.17;98.20;101745.34;5115728;28;20467;-67
2023/08/21 07:08:06;;;;;;;5.73;2.90;;;;;;;23.25;96.50;101754.63;5115302;28;20514;-67
2023/08/21 07:10:37;;;;;;;6.93;2.83;;;;;;;23.28;95.03;101753.91;5114778;28;20522;-67
2023/08/21 07:13:04;;;;;;;6.40;3.17;;;;;;;23.27;95.33;101757.81;5115286;28;20419;-70
2023/08/21 07:15:31;;;;;;;9.27;4.00;;;;;;;23.29;94.09;101761.06;5114819;28;20467;-67
2023/08/21 07:17:57;;;;;;;6.13;2.90;;;;;;;23.35;94.00;101767.09;5114241;28;20459;-67
2023/08/21 07:20:24;;;;;;;4.57;2.80;;;;;;;23.37;93.81;101762.81;5115223;28;20465;-67
2023/08/21 07:22:50;;;;;;;4.83;2.70;;;;;;;23.42;91.08;101767.28;5114764;28;20438;-67
2023/08/21 07:25:18;;;;;;;4.70;2.43;;;;;;;23.48;91.61;101767.78;5114592;28;20461;-67
2023/08/21 07:27:45;;;;;;;6.00;3.63;;;;;;;23.55;88.15;101762.41;5114327;28;20847;-67
2023/08/21 07:30:12;;;;;;;4.70;2.07;;;;;;;23.67;86.85;101765.09;5114917;28;20435;-68
2023/08/21 07:32:39;;;;;;;4.27;2.57;;;;;;;23.81;85.98;101764.59;5114705;28;20497;-67
2023/08/21 07:35:06;;;;;;;4.50;2.47;;;;;;;23.80;84.37;101765.75;5114430;28;20542;-67
2023/08/21 07:37:33;;;;;;;4.20;1.97;;;;;;;23.81;85.46;101759.84;5114856;28;20799;-67
2023/08/21 07:39:59;;;;;;;2.77;1.47;;;;;;;23.78;86.18;101771.66;5114390;28;20880;-67
2023/08/21 07:42:27;;;;;;;4.10;1.60;;;;;;;23.75;83.85;101768.81;5114133;28;20492;-67
2023/08/21 07:44:54;;;;;;;3.03;1.53;;;;;;;23.78;85.35;101777.19;5114292;28;20441;-67
2023/08/21 07:47:20;;;;;;;2.57;1.30;;;;;;;23.83;81.49;101778.88;5114307;28;20990;-68
2023/08/21 07:49:47;;;;;;;3.20;1.33;;;;;;;24.01;79.46;101779.25;5114300;28;20465;-69
2023/08/21 07:52:15;;;;;;;2.77;1.10;;;;;;;24.18;78.08;101778.81;5114274;28;20522;-72
2023/08/21 07:54:41;;;;;;;4.40;1.90;;;;;;;24.23;77.12;101778.53;5114756;28;20534;-74
2023/08/21 07:57:08;;;;;;;3.60;1.50;;;;;;;24.37;75.64;101781.59;5114387;28;20530;-68
2023/08/21 07:59:36;;;;;;;2.90;1.17;;;;;;;24.46;75.85;101780.56;5114516;28;20519;-68
2023/08/21 08:02:04;;;;;;;3.17;1.10;;;;;;;24.46;72.38;101772.25;5114388;28;20440;-68
2023/08/21 08:04:30;;;;;;;3.30;1.07;;;;;;;24.56;73.18;101777.19;5114457;28;20436;-68
2023/08/21 08:06:57;;;;;;;2.87;1.20;;;;;;;24.70;73.90;101773.88;5114385;28;20448;-68
2023/08/21 08:09:24;;;;;;;3.63;1.10;;;;;;;24.79;72.75;101774.44;5113740;28;20931;-68
2023/08/21 08:11:50;;;;;;;2.23;0.83;;;;;;;24.87;71.69;101770.63;5114406;28;20439;-67
2023/08/21 08:14:17;;;;;;;2.40;0.83;;;;;;;24.89;71.42;101774.63;5131077;22;20473;-69
2023/08/21 08:16:45;;;;;;;2.00;0.60;;;;;;;24.95;64.94;101777.88;5117903;28;20459;-68
2023/08/21 08:19:11;;;;;;;1.97;0.40;;;;;;;24.94;59.91;101786.59;5118594;28;20434;-68
2023/08/21 08:21:38;;;;;;;1.97;0.70;;;;;;;24.98;60.23;101784.69;5116672;28;20527;-68
2023/08/21 08:24:05;;;;;;;2.53;1.10;;;;;;;25.06;61.92;101778.88;5116243;28;20511;-69
2023/08/21 08:26:32;;;;;;;2.33;0.77;;;;;;;25.03;55.75;101781.59;5116434;28;20459;-68
2023/08/21 08:28:58;;;;;;;2.87;0.70;;;;;;;25.10;56.63;101778.94;5120438;28;20967;-68
2023/08/21 08:31:27;;;;;;;2.30;0.70;;;;;;;25.05;56.58;101776.47;5121400;28;20443;-68
2023/08/21 08:33:56;;;;;;;2.07;0.70;;;;;;;25.08;53.75;101784.88;5123046;28;20439;-68
2023/08/21 08:36:23;;;;;;;2.33;0.70;;;;;;;25.21;55.88;101785.47;5121958;28;20479;-69
2023/08/21 08:38:49;;;;;;;2.17;0.60;;;;;;;25.44;55.31;101790.19;5122101;28;20510;-69
2023/08/21 08:41:28;;;;;;;1.90;0.50;;;;;;;25.64;56.05;101784.16;5122942;28;20498;-69
2023/08/21 08:43:57;;;;;;;2.00;0.60;;;;;;;25.72;55.62;101793.38;5121441;28;20484;-68
2023/08/21 08:46:24;;;;;;;2.33;0.50;;;;;;;25.73;51.99;101783.88;5122781;28;20469;-68
2023/08/21 08:48:52;;;;;;;2.20;0.80;;;;;;;25.70;52.80;101792.16;5122328;28;20485;-69
2023/08/21 08:51:20;;;;;;;2.70;0.70;;;;;;;25.64;51.94;101791.69;5121715;28;20446;-71
2023/08/21 08:53:48;;;;;;;2.33;0.80;;;;;;;25.72;54.36;101790.63;5120451;28;20439;-69
2023/08/21 08:56:15;;;;;;;1.70;0.40;;;;;;;25.67;54.12;101786.16;5120743;28;20481;-68
2023/08/21 08:58:42;;;;;;;2.17;0.80;;;;;;;25.76;56.59;101788.69;5122653;28;20515;-68
2023/08/21 09:01:10;;;;;;;2.03;0.50;;;;;;;25.89;55.69;101789.25;5123228;28;20432;-68
2023/08/21 09:03:37;;;;;;;2.00;0.60;;;;;;;26.04;56.94;101787.50;5122733;28;20443;-68
2023/08/21 09:06:04;;;;;;;2.00;0.67;;;;;;;26.10;51.66;101791.53;5122921;28;20531;-68
2023/08/21 09:08:32;;;;;;;1.80;0.40;;;;;;;26.34;53.20;101791.03;5124148;28;20479;-69
2023/08/21 09:11:03;;;;;;;2.40;0.63;;;;;;;26.55;54.48;101787.69;5124915;28;20470;-69
2023/08/21 09:13:31;;;;;;;2.10;0.67;;;;;;;26.55;52.55;101784.09;5123801;28;20419;-69
2023/08/21 09:15:59;;;;;;;2.00;0.47;;;;;;;26.62;53.61;101786.97;5105140;28;20467;-69
2023/08/21 09:18:26;;;;;;;2.50;0.80;;;;;;;26.55;53.44;101790.47;5122830;28;20522;-69
2023/08/21 09:20:52;;;;;;;1.80;0.40;;;;;;;26.42;54.66;101789.91;5122584;28;20534;-69
2023/08/21 09:23:19;;;;;;;2.30;0.60;;;;;;;26.39;54.64;101787.09;5122052;28;20526;-69
2023/08/21 09:25:49;;;;;;;3.47;1.10;;;;;;;26.31;56.23;101780.66;5121226;28;20542;-68
2023/08/21 09:28:20;;;;;;;2.10;0.60;;;;;;;26.36;57.07;101782.31;5120994;28;20528;-68
2023/08/21 09:30:49;;;;;;;1.90;0.60;;;;;;;26.26;54.67;101783.00;5120326;28;20443;-70
2023/08/21 09:33:18;;;;;;;2.67;0.77;;;;;;;26.27;53.42;101790.13;5120828;28;20463;-69
2023/08/21 09:35:45;;;;;;;2.00;0.80;;;;;;;26.30;52.90;101790.19;5120319;28;20851;-69
2023/08/21 09:38:12;;;;;;;1.80;0.50;;;;;;;26.39;52.29;101795.44;5120993;28;20461;-69
2023/08/21 09:40:43;;;;;;;2.23;0.70;;;;;;;26.40;53.27;101786.72;5120588;28;20439;-69
2023/08/21 09:43:12;;;;;;;2.23;0.70;;;;;;;26.59;54.00;101790.50;5122224;28;20982;-69
2023/08/21 09:45:39;;;;;;;2.57;1.07;;;;;;;26.52;52.89;101785.69;5121103;28;20462;-69
2023/08/21 09:48:06;;;;;;;2.43;0.80;;;;;;;26.34;52.31;101781.88;5121858;28;21006;-69
2023/08/21 09:50:34;;;;;;;2.10;0.60;;;;;;;26.18;53.34;101782.09;5120175;28;20504;-69
2023/08/21 09:53:02;;;;;;;2.60;0.83;;;;;;;26.12;53.16;101784.41;5120028;28;20493;-69
2023/08/21 09:55:31;;;;;;;2.00;0.60;;;;;;;26.14;53.88;101784.03;5120435;28;20531;-69
2023/08/21 09:58:00;;;;;;;2.37;0.70;;;;;;;26.23;51.99;101769.84;5121593;28;20460;-69
2023/08/21 10:00:30;;;;;;;2.00;0.50;;;;;;;26.22;53.34;101771.03;5120842;28;20503;-69
2023/08/21 10:03:02;;;;;;;1.90;0.60;;;;;;;26.37;51.41;101773.56;5122084;28;20975;-69
2023/08/21 10:05:29;;;;;;;8.90;1.07;;;;;;;26.57;54.58;101771.44;5124600;28;20486;-69
2023/08/21 10:07:56;;;;;;;1.80;0.50;;;;;;;26.70;51.74;101771.16;5122750;28;20532;-69
2023/08/21 10:10:23;;;;;;;1.90;0.50;;;;;;;26.75;51.43;101779.94;5121619;28;20463;-69
2023/08/21 10:12:50;;;;;;;2.47;0.70;;;;;;;26.92;50.85;101770.97;5121816;28;20446;-69
2023/08/21 10:15:17;;;;;;;2.67;0.77;;;;;;;27.10;49.89;101775.91;5121606;28;20889;-69
2023/08/21 10:17:45;;;;;;;2.23;0.70;;;;;;;27.27;49.60;101771.66;5121208;28;20435;-69
2023/08/21 10:20:12;;;;;;;2.27;0.60;;;;;;;27.30;52.19;101774.47;5118550;28;20439;-69
2023/08/21 10:22:45;;;;;;;2.93;0.60;;;;;;;27.43;49.41;101774.94;5121796;28;20843;-69
2023/08/21 10:25:21;;;;;;;4.00;0.93;;;;;;;27.46;48.71;101773.38;5120828;28;20506;-69
2023/08/21 10:27:50;;;;;;;2.20;0.70;;;;;;;27.49;48.16;101778.16;5122010;28;20428;-74
2023/08/21 10:30:22;;;;;;;4.83;1.40;;;;;;;27.55;49.50;101769.06;5120361;28;20809;-73
2023/08/21 10:32:51;;;;;;;2.40;0.97;;;;;;;27.62;49.74;101768.28;5120794;28;20511;-69
2023/08/21 10:35:21;;;;;;;1.90;0.50;;;;;;;27.71;49.19;101776.28;5117967;28;20466;-68
2023/08/21 10:38:07;;;;;;;2.00;0.63;;;;;;;27.76;49.96;101768.41;5118999;28;20444;-68
2023/08/21 10:40:34;;;;;;;2.57;0.73;;;;;;;27.67;49.14;101773.50;5120546;28;20431;-68
2023/08/21 10:43:02;;;;;;;2.40;0.70;;;;;;;27.56;50.88;101769.84;5118725;28;20466;-68
2023/08/21 10:45:29;;;;;;;4.17;0.60;;;;;;;27.72;49.04;101764.00;5119671;28;20837;-68
2023/08/21 10:47:58;;;;;;;2.70;0.70;;;;;;;27.93;50.11;101766.88;5120299;28;21029;-68
2023/08/21 10:50:25;;;;;;;2.00;0.60;;;;;;;27.95;50.61;101772.06;5120808;28;20457;-68
2023/08/21 10:52:53;;;;;;;2.10;0.60;;;;;;;27.90;51.34;101778.81;5120330;28;20450;-70
2023/08/21 10:55:20;;;;;;;2.43;0.70;;;;;;;27.76;49.71;101785.13;5118274;28;20471;-70
2023/08/21 10:57:48;;;;;;;2.20;0.50;;;;;;;27.50;48.41;101785.34;5119357;28;20471;-70
2023/08/21 11:00:17;;;;;;;1.80;0.50;;;;;;;27.42;48.32;101782.50;5118712;28;20450;-70
2023/08/21 11:02:45;;;;;;;2.93;0.80;;;;;;;27.34;48.56;101789.19;5118999;28;20435;-70
2023/08/21 11:05:15;;;;;;;1.90;0.60;;;;;;;27.37;49.49;101791.22;5122295;28;20467;-70
2023/08/21 11:07:44;;;;;;;1.87;0.50;;;;;;;27.37;49.09;101782.88;5119194;28;20442;-70
2023/08/21 11:10:13;;;;;;;1.73;0.40;;;;;;;27.38;50.27;101792.00;5119975;28;20439;-71
2023/08/21 11:12:48;;;;;;;2.53;0.70;;;;;;;27.53;48.54;101793.69;5119220;28;20532;-71
2023/08/21 11:15:16;;;;;;;2.00;0.57;;;;;;;27.69;48.76;101790.63;5119360;28;20471;-69
2023/08/21 11:17:42;;;;;;;2.00;0.60;;;;;;;27.81;47.30;101784.75;5123454;28;20471;-69
2023/08/21 11:20:10;;;;;;;2.40;0.50;;;;;;;28.06;48.13;101789.63;5124977;28;20446;-69
2023/08/21 11:22:39;;;;;;;2.10;0.60;;;;;;;28.07;45.92;101791.25;5125239;28;20493;-69